sensor_id;sensor_type;location;lat;lon;timestamp;pressure;altitude;pressure_sealevel;temperature;humidity
55757;BME280;41676;44.610;44.078;2023-01-28T00:03:56;100762.66;;;-0.73;98.88
55757;BME280;41676;44.610;44.078;2023-01-28T00:08:56;100657.13;;;-1.29;99.35
55757;BME280;41676;44.610;44.078;2023-01-28T00:13:57;100727.59;;;-0.83;99.59
55757;BME280;41676;44.610;44.078;2023-01-28T00:18:58;100701.84;;;-0.89;100.00
55757;BME280;41676;44.610;44.078;2023-01-28T00:23:59;100746.25;;;-0.59;100.00
55757;BME280;41676;44.610;44.078;2023-01-28T00:28:59;100771.53;;;-0.45;100.00
55757;BME280;41676;44.610;44.078;2023-01-28T00:34:00;100762.88;;;-0.46;100.00
55757;BME280;41676;44.610;44.078;2023-01-28T00:39:01;100701.34;;;-0.80;100.00
55757;BME280;41676;44.610;44.078;2023-01-28T00:44:02;100729.56;;;-0.56;100.00
55757;BME280;41676;44.610;44.078;2023-01-28T00:49:03;100652.31;;;-1.05;100.00
55757;BME280;41676;44.610;44.078;2023-01-28T00:54:03;100581.81;;;-1.49;100.00
55757;BME280;41676;44.610;44.078;2023-01-28T00:59:04;100763.69;;;-0.45;100.00
55757;BME280;41676;44.610;44.078;2023-01-28T01:04:05;100774.84;;;-0.41;100.00
55757;BME280;41676;44.610;44.078;2023-01-28T01:09:07;100671.75;;;-1.10;100.00
55757;BME280;41676;44.610;44.078;2023-01-28T01:14:09;100718.59;;;-0.77;100.00
55757;BME280;41676;44.610;44.078;2023-01-28T01:19:10;100689.22;;;-0.97;100.00
55757;BME280;41676;44.610;44.078;2023-01-28T01:24:10;100673.56;;;-0.97;100.00
55757;BME280;41676;44.610;44.078;2023-01-28T01:29:11;100612.13;;;-1.32;100.00
55757;BME280;41676;44.610;44.078;2023-01-28T01:34:12;100707.63;;;-0.68;100.00
55757;BME280;41676;44.610;44.078;2023-01-28T01:39:13;100722.25;;;-0.65;100.00
55757;BME280;41676;44.610;44.078;2023-01-28T01:44:52;100761.44;;;-0.35;100.00
55757;BME280;41676;44.610;44.078;2023-01-28T01:49:55;100658.41;;;-0.90;100.00
55757;BME280;41676;44.610;44.078;2023-01-28T01:54:58;100749.41;;;-0.38;100.00
55757;BME280;41676;44.610;44.078;2023-01-28T02:00:03;100750.88;;;-0.34;100.00
55757;BME280;41676;44.610;44.078;2023-01-28T02:05:08;100743.22;;;-0.37;100.00
55757;BME280;41676;44.610;44.078;2023-01-28T02:10:09;100575.16;;;-1.39;100.00
55757;BME280;41676;44.610;44.078;2023-01-28T02:15:16;100711.59;;;-0.47;100.00
55757;BME280;41676;44.610;44.078;2023-01-28T02:20:25;100594.91;;;-1.19;100.00
55757;BME280;41676;44.610;44.078;2023-01-28T02:26:04;100717.53;;;-0.29;100.00
55757;BME280;41676;44.610;44.078;2023-01-28T02:41:46;100626.94;;;-0.71;100.00
55757;BME280;41676;44.610;44.078;2023-01-28T02:46:51;100691.88;;;-0.36;100.00
55757;BME280;41676;44.610;44.078;2023-01-28T03:03:34;100613.41;;;-0.63;100.00
55757;BME280;41676;44.610;44.078;2023-01-28T03:08:45;100640.78;;;-0.40;100.00
55757;BME280;41676;44.610;44.078;2023-01-28T03:14:06;100674.38;;;-0.20;100.00
55757;BME280;41676;44.610;44.078;2023-01-28T03:19:26;100675.66;;;-0.27;100.00
55757;BME280;41676;44.610;44.078;2023-01-28T03:24:48;100553.56;;;-0.95;100.00
55757;BME280;41676;44.610;44.078;2023-01-28T03:30:16;100660.00;;;-0.27;100.00
55757;BME280;41676;44.610;44.078;2023-01-28T03:35:37;100662.97;;;-0.33;100.00
55757;BME280;41676;44.610;44.078;2023-01-28T03:41:00;100679.13;;;-0.27;100.00
55757;BME280;41676;44.610;44.078;2023-01-28T03:46:04;100588.41;;;-0.82;100.00
55757;BME280;41676;44.610;44.078;2023-01-28T03:51:05;100675.84;;;-0.30;100.00
55757;BME280;41676;44.610;44.078;2023-01-28T03:56:06;100671.25;;;-0.41;100.00
55757;BME280;41676;44.610;44.078;2023-01-28T04:01:08;100661.75;;;-0.42;100.00
55757;BME280;41676;44.610;44.078;2023-01-28T04:06:09;100672.50;;;-0.32;100.00
55757;BME280;41676;44.610;44.078;2023-01-28T04:11:09;100653.19;;;-0.44;100.00
55757;BME280;41676;44.610;44.078;2023-01-28T04:16:19;100680.88;;;-0.27;100.00
55757;BME280;41676;44.610;44.078;2023-01-28T04:21:20;100663.91;;;-0.34;100.00
55757;BME280;41676;44.610;44.078;2023-01-28T04:26:20;100563.22;;;-0.97;100.00
55757;BME280;41676;44.610;44.078;2023-01-28T04:31:21;100667.81;;;-0.41;100.00
55757;BME280;41676;44.610;44.078;2023-01-28T04:36:24;100680.69;;;-0.38;100.00
55757;BME280;41676;44.610;44.078;2023-01-28T04:41:24;100630.09;;;-0.66;100.00
55757;BME280;41676;44.610;44.078;2023-01-28T04:46:25;100579.16;;;-0.87;100.00
55757;BME280;41676;44.610;44.078;2023-01-28T04:51:26;100575.94;;;-1.07;100.00
55757;BME280;41676;44.610;44.078;2023-01-28T04:56:27;100594.09;;;-0.89;100.00
55757;BME280;41676;44.610;44.078;2023-01-28T05:01:28;100672.34;;;-0.45;100.00
55757;BME280;41676;44.610;44.078;2023-01-28T05:06:29;100678.03;;;-0.53;100.00
55757;BME280;41676;44.610;44.078;2023-01-28T05:11:29;100615.47;;;-0.99;100.00
55757;BME280;41676;44.610;44.078;2023-01-28T05:16:30;100672.22;;;-0.58;100.00
55757;BME280;41676;44.610;44.078;2023-01-28T05:21:31;100663.69;;;-0.76;100.00
55757;BME280;41676;44.610;44.078;2023-01-28T05:26:32;100680.59;;;-0.67;100.00
55757;BME280;41676;44.610;44.078;2023-01-28T05:31:33;100679.16;;;-0.73;100.00
55757;BME280;41676;44.610;44.078;2023-01-28T05:36:34;100581.88;;;-1.35;100.00
55757;BME280;41676;44.610;44.078;2023-01-28T05:41:34;100639.31;;;-0.90;100.00
55757;BME280;41676;44.610;44.078;2023-01-28T05:46:35;100665.22;;;-0.72;100.00
55757;BME280;41676;44.610;44.078;2023-01-28T05:51:41;100617.56;;;-0.89;100.00
55757;BME280;41676;44.610;44.078;2023-01-28T05:56:42;100617.41;;;-0.72;100.00
55757;BME280;41676;44.610;44.078;2023-01-28T06:01:43;100550.63;;;-1.05;100.00
55757;BME280;41676;44.610;44.078;2023-01-28T06:06:44;100656.91;;;-0.34;100.00
55757;BME280;41676;44.610;44.078;2023-01-28T06:11:45;100640.72;;;-0.39;100.00
55757;BME280;41676;44.610;44.078;2023-01-28T06:16:46;100662.16;;;-0.19;100.00
55757;BME280;41676;44.610;44.078;2023-01-28T06:21:46;100646.97;;;-0.13;100.00
55757;BME280;41676;44.610;44.078;2023-01-28T06:26:47;100593.72;;;-0.39;100.00
55757;BME280;41676;44.610;44.078;2023-01-28T06:31:48;100447.38;;;-1.07;100.00
55757;BME280;41676;44.610;44.078;2023-01-28T06:36:49;100622.25;;;0.07;100.00
55757;BME280;41676;44.610;44.078;2023-01-28T06:41:50;100639.03;;;0.46;100.00
55757;BME280;41676;44.610;44.078;2023-01-28T06:46:51;100544.66;;;0.09;100.00
55757;BME280;41676;44.610;44.078;2023-01-28T06:51:52;100559.66;;;0.06;100.00
55757;BME280;41676;44.610;44.078;2023-01-28T06:56:52;100611.75;;;0.36;100.00
55757;BME280;41676;44.610;44.078;2023-01-28T07:01:53;100651.97;;;0.62;100.00
55757;BME280;41676;44.610;44.078;2023-01-28T07:06:54;100589.63;;;0.41;100.00
55757;BME280;41676;44.610;44.078;2023-01-28T07:11:54;100457.69;;;-0.20;100.00
55757;BME280;41676;44.610;44.078;2023-01-28T07:16:55;100633.78;;;0.87;100.00
55757;BME280;41676;44.610;44.078;2023-01-28T07:21:56;100591.22;;;0.71;100.00
55757;BME280;41676;44.610;44.078;2023-01-28T07:27:00;100596.44;;;0.98;100.00
55757;BME280;41676;44.610;44.078;2023-01-28T07:32:01;100622.56;;;1.25;100.00
55757;BME280;41676;44.610;44.078;2023-01-28T07:37:02;100587.97;;;0.95;100.00
55757;BME280;41676;44.610;44.078;2023-01-28T07:42:02;100570.59;;;0.81;100.00
55757;BME280;41676;44.610;44.078;2023-01-28T07:47:04;100621.72;;;1.12;100.00
55757;BME280;41676;44.610;44.078;2023-01-28T07:52:09;100561.25;;;0.89;100.00
55757;BME280;41676;44.610;44.078;2023-01-28T07:57:09;100577.13;;;1.13;100.00
55757;BME280;41676;44.610;44.078;2023-01-28T08:02:10;100577.31;;;1.10;100.00
55757;BME280;41676;44.610;44.078;2023-01-28T08:07:12;100477.94;;;0.58;100.00
55757;BME280;41676;44.610;44.078;2023-01-28T08:12:13;100524.84;;;0.86;100.00
55757;BME280;41676;44.610;44.078;2023-01-28T08:17:14;100429.78;;;0.35;100.00
55757;BME280;41676;44.610;44.078;2023-01-28T08:22:14;100553.31;;;1.44;100.00
55757;BME280;41676;44.610;44.078;2023-01-28T08:27:15;100357.16;;;0.53;100.00
55757;BME280;41676;44.610;44.078;2023-01-28T08:32:16;100474.34;;;1.37;100.00
55757;BME280;41676;44.610;44.078;2023-01-28T08:37:17;100404.97;;;1.06;100.00
55757;BME280;41676;44.610;44.078;2023-01-28T08:42:17;100394.41;;;1.07;100.00
55757;BME280;41676;44.610;44.078;2023-01-28T08:47:19;100493.47;;;1.76;100.00
55757;BME280;41676;44.610;44.078;2023-01-28T08:52:19;100519.34;;;2.17;100.00
55757;BME280;41676;44.610;44.078;2023-01-28T08:57:20;100455.81;;;1.90;100.00
55757;BME280;41676;44.610;44.078;2023-01-28T09:02:21;100402.31;;;1.81;100.00
55757;BME280;41676;44.610;44.078;2023-01-28T09:07:21;100425.13;;;2.16;100.00
55757;BME280;41676;44.610;44.078;2023-01-28T09:12:22;100290.91;;;1.40;99.43
55757;BME280;41676;44.610;44.078;2023-01-28T09:17:23;100491.56;;;2.98;99.40
55757;BME280;41676;44.610;44.078;2023-01-28T09:22:24;100427.09;;;2.71;99.13
55757;BME280;41676;44.610;44.078;2023-01-28T09:27:25;100486.63;;;3.17;98.84
55757;BME280;41676;44.610;44.078;2023-01-28T09:32:26;100484.81;;;3.18;98.17
55757;BME280;41676;44.610;44.078;2023-01-28T09:37:27;100473.44;;;2.95;98.10
55757;BME280;41676;44.610;44.078;2023-01-28T09:47:50;100449.81;;;2.95;97.89
55757;BME280;41676;44.610;44.078;2023-01-28T09:52:54;100434.06;;;2.95;97.85
55757;BME280;41676;44.610;44.078;2023-01-28T09:57:57;100420.16;;;3.06;97.58
55757;BME280;41676;44.610;44.078;2023-01-28T10:03:00;100442.22;;;3.26;97.09
55757;BME280;41676;44.610;44.078;2023-01-28T10:08:09;100440.44;;;3.26;96.93
55757;BME280;41676;44.610;44.078;2023-01-28T10:18:52;100275.41;;;2.32;97.14
55757;BME280;41676;44.610;44.078;2023-01-28T10:24:02;100448.19;;;3.39;96.81
55757;BME280;41676;44.610;44.078;2023-01-28T10:29:17;100433.75;;;3.33;97.26
55757;BME280;41676;44.610;44.078;2023-01-28T10:34:18;100432.94;;;3.33;97.44
55757;BME280;41676;44.610;44.078;2023-01-28T10:39:21;100434.59;;;3.34;97.79
55757;BME280;41676;44.610;44.078;2023-01-28T10:44:39;100406.75;;;3.20;98.05
55757;BME280;41676;44.610;44.078;2023-01-28T10:49:52;100402.72;;;3.16;98.37
55757;BME280;41676;44.610;44.078;2023-01-28T10:55:02;100347.72;;;3.03;99.37
55757;BME280;41676;44.610;44.078;2023-01-28T11:00:33;100410.44;;;3.74;98.63
55757;BME280;41676;44.610;44.078;2023-01-28T11:05:32;100412.03;;;3.97;98.52
55757;BME280;41676;44.610;44.078;2023-01-28T11:10:35;100419.16;;;4.18;97.65
55757;BME280;41676;44.610;44.078;2023-01-28T11:15:45;100397.91;;;4.09;97.94
55757;BME280;41676;44.610;44.078;2023-01-28T11:20:52;100400.91;;;4.16;97.87
55757;BME280;41676;44.610;44.078;2023-01-28T11:26:05;100398.78;;;3.99;97.92
55757;BME280;41676;44.610;44.078;2023-01-28T11:31:07;100414.69;;;3.97;98.26
55757;BME280;41676;44.610;44.078;2023-01-28T11:36:18;100350.63;;;3.66;98.04
55757;BME280;41676;44.610;44.078;2023-01-28T11:46:44;100427.75;;;4.20;98.54
55757;BME280;41676;44.610;44.078;2023-01-28T11:51:52;100351.66;;;3.86;97.71
55757;BME280;41676;44.610;44.078;2023-01-28T11:57:20;100395.97;;;4.23;96.99
55757;BME280;41676;44.610;44.078;2023-01-28T12:08:14;100427.31;;;4.47;96.35
55757;BME280;41676;44.610;44.078;2023-01-28T12:44:53;100356.06;;;4.18;95.39
55757;BME280;41676;44.610;44.078;2023-01-28T12:50:02;100319.88;;;3.89;94.88
55757;BME280;41676;44.610;44.078;2023-01-28T13:00:33;100419.09;;;4.40;95.09
55757;BME280;41676;44.610;44.078;2023-01-28T13:05:38;100261.53;;;3.31;95.17
55757;BME280;41676;44.610;44.078;2023-01-28T13:10:43;100422.97;;;4.25;95.74
55757;BME280;41676;44.610;44.078;2023-01-28T13:15:44;100401.41;;;4.10;95.69
55757;BME280;41676;44.610;44.078;2023-01-28T13:20:48;100381.00;;;3.91;95.40
55757;BME280;41676;44.610;44.078;2023-01-28T13:25:52;100399.13;;;4.05;95.70
55757;BME280;41676;44.610;44.078;2023-01-28T13:31:03;100353.72;;;3.71;95.43
55757;BME280;41676;44.610;44.078;2023-01-28T13:36:28;100422.03;;;4.15;95.06
55757;BME280;41676;44.610;44.078;2023-01-28T13:41:45;100401.34;;;3.89;95.32
55757;BME280;41676;44.610;44.078;2023-01-28T13:46:46;100413.88;;;3.85;95.76
55757;BME280;41676;44.610;44.078;2023-01-28T14:19:42;100374.44;;;3.19;96.29
55757;BME280;41676;44.610;44.078;2023-01-28T14:24:44;100396.41;;;3.30;96.14
55757;BME280;41676;44.610;44.078;2023-01-28T14:35:08;100405.22;;;3.29;96.35
55757;BME280;41676;44.610;44.078;2023-01-28T14:40:15;100365.84;;;3.06;96.21
55757;BME280;41676;44.610;44.078;2023-01-28T14:55:55;100356.66;;;3.01;95.80
55757;BME280;41676;44.610;44.078;2023-01-28T15:01:00;100360.34;;;2.98;95.54
55757;BME280;41676;44.610;44.078;2023-01-28T15:06:14;100277.81;;;2.46;95.98
55757;BME280;41676;44.610;44.078;2023-01-28T15:11:27;100439.59;;;3.37;96.25
55757;BME280;41676;44.610;44.078;2023-01-28T15:16:28;100455.72;;;3.43;96.23
55757;BME280;41676;44.610;44.078;2023-01-28T15:21:35;100362.75;;;2.79;95.93
55757;BME280;41676;44.610;44.078;2023-01-28T15:26:37;100461.69;;;3.34;96.07
55757;BME280;41676;44.610;44.078;2023-01-28T15:31:46;100431.50;;;3.17;96.27
55757;BME280;41676;44.610;44.078;2023-01-28T15:36:47;100446.75;;;3.24;96.55
55757;BME280;41676;44.610;44.078;2023-01-28T15:46:52;100392.53;;;2.78;95.38
55757;BME280;41676;44.610;44.078;2023-01-28T15:51:53;100460.59;;;3.14;96.36
55757;BME280;41676;44.610;44.078;2023-01-28T15:56:54;100448.44;;;3.25;96.34
55757;BME280;41676;44.610;44.078;2023-01-28T16:07:23;100408.69;;;3.07;96.29
55757;BME280;41676;44.610;44.078;2023-01-28T16:12:24;100451.16;;;3.34;95.92
55757;BME280;41676;44.610;44.078;2023-01-28T16:17:34;100443.19;;;3.36;97.63
55757;BME280;41676;44.610;44.078;2023-01-28T16:22:38;100420.63;;;3.22;98.64
55757;BME280;41676;44.610;44.078;2023-01-28T16:27:40;100437.69;;;3.28;99.93
55757;BME280;41676;44.610;44.078;2023-01-28T16:32:41;100462.28;;;3.49;99.35
55757;BME280;41676;44.610;44.078;2023-01-28T16:37:46;100391.50;;;2.91;100.00
55757;BME280;41676;44.610;44.078;2023-01-28T16:42:47;100472.53;;;3.41;100.00
55757;BME280;41676;44.610;44.078;2023-01-28T16:47:50;100472.06;;;3.36;100.00
55757;BME280;41676;44.610;44.078;2023-01-28T16:52:52;100478.25;;;3.35;100.00
55757;BME280;41676;44.610;44.078;2023-01-28T16:57:56;100478.25;;;3.35;100.00
55757;BME280;41676;44.610;44.078;2023-01-28T17:02:57;100466.94;;;3.34;100.00
55757;BME280;41676;44.610;44.078;2023-01-28T17:07:57;100464.06;;;3.26;100.00
55757;BME280;41676;44.610;44.078;2023-01-28T17:12:58;100303.16;;;2.23;100.00
55757;BME280;41676;44.610;44.078;2023-01-28T17:17:59;100449.00;;;3.06;100.00
55757;BME280;41676;44.610;44.078;2023-01-28T17:23:00;100461.06;;;3.08;100.00
55757;BME280;41676;44.610;44.078;2023-01-28T17:28:01;100457.00;;;3.04;100.00
55757;BME280;41676;44.610;44.078;2023-01-28T17:33:01;100464.03;;;3.04;100.00
55757;BME280;41676;44.610;44.078;2023-01-28T17:38:03;100419.38;;;2.70;100.00
55757;BME280;41676;44.610;44.078;2023-01-28T17:43:04;100320.59;;;2.00;100.00
55757;BME280;41676;44.610;44.078;2023-01-28T17:48:05;100443.81;;;2.70;100.00
55757;BME280;41676;44.610;44.078;2023-01-28T17:53:08;100316.47;;;1.85;100.00
55757;BME280;41676;44.610;44.078;2023-01-28T17:58:09;100425.34;;;2.48;100.00
55757;BME280;41676;44.610;44.078;2023-01-28T18:03:12;100417.94;;;2.42;100.00
55757;BME280;41676;44.610;44.078;2023-01-28T18:08:12;100389.88;;;2.20;100.00
55757;BME280;41676;44.610;44.078;2023-01-28T18:13:13;100430.22;;;2.41;100.00
55757;BME280;41676;44.610;44.078;2023-01-28T18:18:14;100355.47;;;2.00;100.00
55757;BME280;41676;44.610;44.078;2023-01-28T18:23:15;100318.13;;;1.74;100.00
55757;BME280;41676;44.610;44.078;2023-01-28T18:28:15;100372.97;;;1.89;100.00
55757;BME280;41676;44.610;44.078;2023-01-28T18:33:17;100399.19;;;2.00;100.00
55757;BME280;41676;44.610;44.078;2023-01-28T18:38:18;100367.88;;;1.74;100.00
55757;BME280;41676;44.610;44.078;2023-01-28T18:43:18;100423.50;;;2.02;100.00
55757;BME280;41676;44.610;44.078;2023-01-28T18:48:19;100258.69;;;1.03;100.00
55757;BME280;41676;44.610;44.078;2023-01-28T18:53:21;100329.03;;;1.31;100.00
55757;BME280;41676;44.610;44.078;2023-01-28T18:58:22;100411.34;;;1.77;100.00
55757;BME280;41676;44.610;44.078;2023-01-28T19:03:22;100407.91;;;1.64;100.00
55757;BME280;41676;44.610;44.078;2023-01-28T19:08:23;100413.59;;;1.57;100.00
55757;BME280;41676;44.610;44.078;2023-01-28T19:13:24;100391.41;;;1.37;100.00
55757;BME280;41676;44.610;44.078;2023-01-28T19:18:25;100375.03;;;1.23;100.00
55757;BME280;41676;44.610;44.078;2023-01-28T19:23:26;100427.09;;;1.51;100.00
55757;BME280;41676;44.610;44.078;2023-01-28T19:28:31;100380.78;;;1.15;100.00
55757;BME280;41676;44.610;44.078;2023-01-28T19:33:32;100433.00;;;1.42;100.00
55757;BME280;41676;44.610;44.078;2023-01-28T19:38:32;100421.59;;;1.30;100.00
55757;BME280;41676;44.610;44.078;2023-01-28T19:43:34;100456.13;;;1.48;100.00
55757;BME280;41676;44.610;44.078;2023-01-28T19:48:35;100432.69;;;1.47;100.00
55757;BME280;41676;44.610;44.078;2023-01-28T19:53:37;100378.28;;;1.13;100.00
55757;BME280;41676;44.610;44.078;2023-01-28T19:58:41;100452.28;;;1.78;100.00
55757;BME280;41676;44.610;44.078;2023-01-28T20:03:42;100448.19;;;1.87;100.00
55757;BME280;41676;44.610;44.078;2023-01-28T20:08:44;100446.00;;;1.80;100.00
55757;BME280;41676;44.610;44.078;2023-01-28T20:13:46;100414.63;;;1.68;100.00
55757;BME280;41676;44.610;44.078;2023-01-28T20:19:07;100383.78;;;1.47;100.00
55757;BME280;41676;44.610;44.078;2023-01-28T20:24:13;100325.75;;;1.04;100.00
55757;BME280;41676;44.610;44.078;2023-01-28T20:29:16;100411.19;;;1.54;100.00
55757;BME280;41676;44.610;44.078;2023-01-28T20:34:18;100423.84;;;1.60;100.00
55757;BME280;41676;44.610;44.078;2023-01-28T20:39:19;100419.78;;;1.56;100.00
55757;BME280;41676;44.610;44.078;2023-01-28T20:44:20;100427.72;;;1.55;100.00
55757;BME280;41676;44.610;44.078;2023-01-28T20:49:21;100416.75;;;1.50;100.00
55757;BME280;41676;44.610;44.078;2023-01-28T20:54:22;100405.69;;;1.33;100.00
55757;BME280;41676;44.610;44.078;2023-01-28T20:59:24;100358.19;;;1.14;100.00
55757;BME280;41676;44.610;44.078;2023-01-28T21:04:25;100432.53;;;1.61;100.00
55757;BME280;41676;44.610;44.078;2023-01-28T21:09:26;100412.00;;;1.68;100.00
55757;BME280;41676;44.610;44.078;2023-01-28T21:14:27;100374.66;;;1.53;100.00
55757;BME280;41676;44.610;44.078;2023-01-28T21:19:28;100317.25;;;1.13;100.00
55757;BME280;41676;44.610;44.078;2023-01-28T21:24:28;100311.75;;;1.05;100.00
55757;BME280;41676;44.610;44.078;2023-01-28T21:29:29;100361.31;;;1.32;100.00
55757;BME280;41676;44.610;44.078;2023-01-28T21:34:30;100393.28;;;1.48;100.00
55757;BME280;41676;44.610;44.078;2023-01-28T21:39:31;100395.22;;;1.33;100.00
55757;BME280;41676;44.610;44.078;2023-01-28T21:44:31;100311.88;;;0.65;100.00
55757;BME280;41676;44.610;44.078;2023-01-28T21:49:32;100366.75;;;1.16;100.00
55757;BME280;41676;44.610;44.078;2023-01-28T21:54:33;100322.34;;;0.90;100.00
55757;BME280;41676;44.610;44.078;2023-01-28T21:59:35;100382.25;;;1.19;100.00
55757;BME280;41676;44.610;44.078;2023-01-28T22:04:42;100392.50;;;1.22;100.00
55757;BME280;41676;44.610;44.078;2023-01-28T22:10:02;100393.16;;;1.26;100.00
55757;BME280;41676;44.610;44.078;2023-01-28T22:15:07;100403.81;;;1.23;100.00
55757;BME280;41676;44.610;44.078;2023-01-28T22:20:45;100389.78;;;1.24;100.00
55757;BME280;41676;44.610;44.078;2023-01-28T22:26:11;100389.56;;;1.27;100.00
55757;BME280;41676;44.610;44.078;2023-01-28T22:31:33;100391.53;;;1.36;100.00
55757;BME280;41676;44.610;44.078;2023-01-28T22:42:54;100374.19;;;1.22;100.00
55757;BME280;41676;44.610;44.078;2023-01-28T22:48:41;100308.63;;;0.74;100.00
55757;BME280;41676;44.610;44.078;2023-01-28T22:53:54;100364.47;;;1.11;100.00
55757;BME280;41676;44.610;44.078;2023-01-28T22:59:00;100360.72;;;1.03;100.00
55757;BME280;41676;44.610;44.078;2023-01-28T23:04:07;100370.03;;;1.07;100.00
55757;BME280;41676;44.610;44.078;2023-01-28T23:09:23;100296.00;;;0.55;100.00
55757;BME280;41676;44.610;44.078;2023-01-28T23:14:36;100383.84;;;1.09;100.00
55757;BME280;41676;44.610;44.078;2023-01-28T23:19:56;100359.44;;;0.96;100.00
55757;BME280;41676;44.610;44.078;2023-01-28T23:25:15;100388.84;;;1.12;100.00
55757;BME280;41676;44.610;44.078;2023-01-28T23:30:16;100378.91;;;1.17;100.00
55757;BME280;41676;44.610;44.078;2023-01-28T23:35:24;100343.38;;;1.02;100.00
55757;BME280;41676;44.610;44.078;2023-01-28T23:40:27;100365.09;;;1.15;100.00
55757;BME280;41676;44.610;44.078;2023-01-28T23:45:28;100372.22;;;1.13;100.00
55757;BME280;41676;44.610;44.078;2023-01-28T23:50:29;100380.16;;;1.24;100.00
55757;BME280;41676;44.610;44.078;2023-01-28T23:55:30;100374.47;;;1.30;100.00
